»·PEaware :: STRYK11 KLKV-KPAE

STRYK11 :: KLKV-KPAE

FLIGHT INFORMATION

Flight Status: Arrived
Operator: Unknown
More flights by this operator :: More flights under this callsign
Pilot: Kevin M. (7)
Aircraft: Unknown
(F35)
More flights by this aircraft type
Origin: KLKV Lake Co
United States
Destination: KPAE Paine Field/Snohomish Co.
United States
More flights between these airports :: More routes between these airports
Route: +LKV BTG OLM2
File this flight plan on PilotEdge
Remarks:
Altitude:
(Current/Filed)
36,000ft
Speed:
(Current/Filed)
550kts
Departed: 01-Oct-19 05:24 PM
Arrived: 01-Oct-19 06:15 PM
Distance/Time
Traveled:
354nm/0:51
Distance/Time
To Go:
Arrived

Flight Plot

Page will automatically refresh every two minutes.

Flight plan parsing failed; only flown route is shown


Map Options




Map Legend


Flown Route
Filed Route
Departure Airport
Arrival Airport
Navaid (VOR, NDB)
Fix

Horizontal Profiles

Position Reports

Time Latitude Longitude Heading Altitude Ground
Speed
01-Oct-19 17:22 42.168066 -121.739768 160 4095ft 25kts
01-Oct-19 17:23 42.150398 -121.658843 69 9510ft 428kts
01-Oct-19 17:24 42.210403 -121.461588 66 12236ft 611kts
01-Oct-19 17:25 42.274089 -121.249424 65 16052ft 611kts
01-Oct-19 17:26 42.339915 -121.028535 65 17665ft 645kts
01-Oct-19 17:27 42.406691 -120.802101 66 17683ft 648kts
01-Oct-19 17:28 42.508563 -120.612714 20 17826ft 627kts
01-Oct-19 17:29 42.681258 -120.602668 337 21987ft 641kts
01-Oct-19 17:30 42.836262 -120.715197 337 26704ft 620kts
01-Oct-19 17:31 42.993861 -120.812165 337 31698ft 603kts
01-Oct-19 17:32 43.134553 -120.898545 338 36062ft 533kts
01-Oct-19 17:33 43.292854 -120.996328 337 36253ft 708kts
01-Oct-19 17:34 43.442211 -121.089358 337 36192ft 520kts
01-Oct-19 17:35 43.584423 -121.178149 336 36255ft 699kts
01-Oct-19 17:36 43.762024 -121.289996 337 36195ft 627kts
01-Oct-19 17:37 43.931488 -121.397313 337 36186ft 585kts
01-Oct-19 17:38 44.081959 -121.493134 336 36182ft 549kts
01-Oct-19 17:39 44.212988 -121.577003 336 36202ft 535kts
01-Oct-19 17:40 44.347807 -121.663770 336 36225ft 528kts
01-Oct-19 17:41 44.479814 -121.749111 336 36236ft 517kts
01-Oct-19 17:42 44.607178 -121.831877 336 36222ft 515kts
01-Oct-19 17:43 44.730851 -121.912642 336 36237ft 483kts
01-Oct-19 17:44 44.856801 -121.995284 336 36218ft 505kts
01-Oct-19 17:45 44.983564 -122.078921 336 36221ft 505kts
01-Oct-19 17:46 45.111480 -122.163695 337 36226ft 512kts
01-Oct-19 17:47 45.241256 -122.250048 337 36232ft 514kts
01-Oct-19 17:48 45.370537 -122.336565 337 36230ft 514kts
01-Oct-19 17:49 45.499512 -122.423327 337 36228ft 514kts
01-Oct-19 17:50 45.628924 -122.510818 337 36226ft 514kts
01-Oct-19 17:51 45.758672 -122.596176 347 36213ft 510kts
01-Oct-19 17:52 45.897852 -122.628940 352 36225ft 509kts
01-Oct-19 17:53 46.037736 -122.663860 351 36225ft 509kts
01-Oct-19 17:54 46.176697 -122.698760 351 36241ft 509kts
01-Oct-19 17:55 46.316469 -122.734039 351 36111ft 513kts
01-Oct-19 17:56 46.456176 -122.769468 351 33327ft 524kts
01-Oct-19 17:57 46.603905 -122.807182 351 32152ft 535kts
01-Oct-19 17:58 46.745533 -122.843503 351 29502ft 523kts
01-Oct-19 17:59 46.899900 -122.883334 351 27174ft 588kts
01-Oct-19 18:00 47.043712 -122.817140 45 25062ft 531kts
01-Oct-19 18:01 47.150127 -122.674368 38 20292ft 514kts
01-Oct-19 18:02 47.254493 -122.540229 39 17020ft 490kts
01-Oct-19 18:03 47.362946 -122.453853 356 15737ft 429kts
01-Oct-19 18:04 47.473317 -122.459979 357 14980ft 358kts
01-Oct-19 18:05 47.568750 -122.465137 357 13607ft 343kts
01-Oct-19 18:06 47.660180 -122.469901 357 12844ft 320kts
01-Oct-19 18:07 47.749661 -122.474303 357 11028ft 314kts
01-Oct-19 18:08 47.826807 -122.477837 357 9377ft 318kts
01-Oct-19 18:09 47.903085 -122.480816 358 6644ft 264kts
01-Oct-19 18:10 47.973252 -122.464738 54 5408ft 260kts
01-Oct-19 18:11 48.001270 -122.358374 83 4646ft 299kts
01-Oct-19 18:12 47.973980 -122.292519 165 1258ft 199kts
01-Oct-19 18:13 47.920174 -122.285793 179 594ft 166kts
01-Oct-19 18:14 47.897915 -122.283956 87 568ft 5kts
01-Oct-19 18:15 47.900581 -122.283204 359 585ft 26kts
01-Oct-19 18:16 47.906881 -122.283257 356 592ft 10kts
01-Oct-19 18:17 47.905809 -122.282352 181 595ft 0kts
01-Oct-19 18:18 47.905809 -122.282352 181 595ft 0kts
01-Oct-19 18:19 47.905809 -122.282352 181 595ft 0kts
01-Oct-19 18:20 47.905809 -122.282352 181 595ft 0kts
01-Oct-19 18:22 47.905809 -122.282352 181 595ft 0kts
01-Oct-19 18:23 47.905809 -122.282352 181 595ft 0kts
01-Oct-19 18:24 47.905809 -122.282352 181 595ft 0kts
01-Oct-19 18:25 47.905809 -122.282352 181 595ft 0kts
01-Oct-19 18:26 47.905809 -122.282352 181 595ft 0kts
01-Oct-19 18:27 47.905809 -122.282352 181 595ft 0kts
01-Oct-19 18:28 47.905548 -122.282323 175 596ft 1kts
01-Oct-19 18:29 47.905757 -122.282345 359 595ft 0kts

Navigation Log

Ident Type
Flight plan parsing failed, navigation log unavailable